Time;durP1;ratioP1;P1;durP2;ratioP2;P2;SDS_P1;SDS_P2;PMS_P1;PMS_P2;Temp;Humidity;BMP_temperature;BMP_pressure;BME280_temperature;BME280_humidity;BME280_pressure;Samples;Min_cycle;Max_cycle;Signal;HPM_P1;HPM_P2
2022/08/27 00:02:20;;;;;;;31.10;21.98;;;18.90;99.90;;;;;;5057410;28;20492;-76
2022/08/27 00:04:48;;;;;;;31.27;20.30;;;18.90;99.90;;;;;;5057320;28;20045;-75
2022/08/27 00:07:17;;;;;;;32.60;21.33;;;18.90;99.90;;;;;;5058967;28;20041;-77
2022/08/27 00:09:44;;;;;;;31.90;21.70;;;18.80;99.90;;;;;;5057507;28;20037;-76
2022/08/27 00:12:12;;;;;;;33.75;22.35;;;18.70;99.90;;;;;;5057293;28;20542;-75
2022/08/27 00:14:39;;;;;;;34.72;22.45;;;18.70;99.90;;;;;;5056738;28;20052;-75
2022/08/27 00:17:07;;;;;;;36.60;23.60;;;18.70;99.90;;;;;;5040200;28;20072;-75
2022/08/27 00:19:35;;;;;;;34.67;22.35;;;18.60;99.90;;;;;;5071705;28;20064;-76
2022/08/27 00:22:04;;;;;;;35.85;23.75;;;18.60;99.90;;;;;;5061927;28;20052;-78
2022/08/27 00:24:33;;;;;;;32.88;23.55;;;18.60;99.90;;;;;;5040738;28;20053;-77
2022/08/27 00:27:00;;;;;;;35.28;24.00;;;18.70;99.90;;;;;;5056311;28;20551;-76
2022/08/27 00:29:28;;;;;;;32.65;23.65;;;18.60;99.90;;;;;;5039258;28;20045;-75
2022/08/27 00:31:55;;;;;;;33.10;23.80;;;18.60;99.90;;;;;;5058337;28;20045;-77
2022/08/27 00:34:23;;;;;;;33.05;23.33;;;18.50;99.90;;;;;;5056407;28;20041;-75
2022/08/27 00:36:51;;;;;;;33.85;24.27;;;18.60;99.90;;;;;;5056275;28;20041;-76
2022/08/27 00:39:20;;;;;;;30.60;23.23;;;18.60;99.90;;;;;;5057882;28;20045;-74
2022/08/27 00:41:49;;;;;;;39.95;23.42;;;18.60;99.90;;;;;;5042308;28;20492;-75
2022/08/27 00:44:17;;;;;;;32.47;22.10;;;18.60;99.90;;;;;;5059842;28;20033;-76
2022/08/27 00:46:49;;;;;;;33.15;22.23;;;18.60;99.90;;;;;;5059137;28;20044;-76
2022/08/27 00:49:20;;;;;;;27.65;22.08;;;18.60;99.90;;;;;;5058606;28;20037;-77
2022/08/27 00:51:52;;;;;;;28.90;22.42;;;18.60;99.90;;;;;;5057937;28;20496;-76
2022/08/27 00:54:20;;;;;;;36.72;21.05;;;18.60;99.90;;;;;;5037755;28;20041;-76
2022/08/27 00:56:49;;;;;;;32.50;20.80;;;18.50;99.90;;;;;;5037610;28;20577;-75
2022/08/27 00:59:18;;;;;;;33.88;24.67;;;18.50;99.90;;;;;;5039226;28;20473;-75
2022/08/27 01:04:34;;;;;;;27.90;18.90;;;18.50;99.90;;;;;;5037294;28;20051;-76
2022/08/27 01:07:02;;;;;;;26.50;20.30;;;18.50;99.90;;;;;;5057234;28;20049;-76
2022/08/27 01:09:30;;;;;;;32.65;20.63;;;18.40;99.90;;;;;;5038628;28;20131;-75
2022/08/27 01:11:59;;;;;;;29.92;20.55;;;18.40;99.90;;;;;;5056613;28;20041;-75
2022/08/27 01:14:27;;;;;;;32.75;22.13;;;18.30;99.90;;;;;;5055873;28;20124;-75
2022/08/27 01:16:57;;;;;;;29.27;20.83;;;18.30;99.90;;;;;;5055141;28;20045;-76
2022/08/27 01:19:29;;;;;;;30.30;22.13;;;18.30;99.90;;;;;;5055478;28;20443;-76
2022/08/27 01:22:05;;;;;;;30.30;21.90;;;18.20;99.90;;;;;;5055941;28;20075;-76
2022/08/27 01:24:38;;;;;;;30.63;21.60;;;18.20;99.90;;;;;;5038331;28;20052;-76
2022/08/27 01:27:10;;;;;;;35.05;22.95;;;18.20;99.90;;;;;;5073492;28;20036;-73
2022/08/27 01:29:37;;;;;;;37.67;22.90;;;18.20;99.90;;;;;;5039071;28;20041;-75
2022/08/27 01:32:10;;;;;;;29.02;20.55;;;18.20;99.90;;;;;;5054857;28;20056;-74
2022/08/27 01:34:38;;;;;;;29.08;22.58;;;18.20;99.90;;;;;;5054902;28;20037;-75
2022/08/27 01:37:06;;;;;;;30.13;21.63;;;18.20;99.90;;;;;;5056007;28;20036;-76
2022/08/27 01:39:38;;;;;;;30.13;21.67;;;18.20;99.90;;;;;;5064788;28;20060;-76
2022/08/27 01:42:08;;;;;;;28.10;22.05;;;18.10;99.90;;;;;;5069171;28;20068;-76
2022/08/27 01:44:46;;;;;;;31.95;22.52;;;18.10;99.90;;;;;;5054888;28;20068;-74
2022/08/27 01:47:13;;;;;;;32.58;22.80;;;18.10;99.90;;;;;;5037421;28;20068;-76
2022/08/27 01:49:40;;;;;;;32.53;23.33;;;18.10;99.90;;;;;;5054204;28;20098;-74
2022/08/27 01:52:08;;;;;;;32.42;24.30;;;18.10;99.90;;;;;;5036055;28;20450;-76
2022/08/27 01:54:37;;;;;;;29.58;23.08;;;18.10;99.90;;;;;;5053518;28;20091;-74
2022/08/27 01:57:04;;;;;;;31.60;21.88;;;18.00;99.90;;;;;;5036689;28;20045;-76
2022/08/27 01:59:32;;;;;;;35.50;22.35;;;18.00;99.90;;;;;;5053799;28;20091;-75
2022/08/27 02:02:01;;;;;;;36.35;24.13;;;17.90;99.90;;;;;;5036326;28;20052;-76
2022/08/27 02:04:29;;;;;;;35.10;24.50;;;17.90;99.90;;;;;;5053727;28;20044;-75
2022/08/27 02:06:57;;;;;;;32.83;24.95;;;17.80;99.90;;;;;;5035669;28;20087;-75
2022/08/27 02:09:25;;;;;;;32.17;24.73;;;17.80;99.90;;;;;;5036405;28;20500;-76
2022/08/27 02:11:54;;;;;;;29.85;22.75;;;17.80;99.90;;;;;;5054481;28;20124;-74
2022/08/27 02:14:21;;;;;;;37.40;23.70;;;17.80;99.90;;;;;;5046731;28;20099;-77
2022/08/27 02:16:49;;;;;;;29.17;21.92;;;17.80;99.90;;;;;;5063462;28;20056;-76
2022/08/27 02:19:17;;;;;;;30.85;21.92;;;17.80;99.90;;;;;;5060690;28;20037;-76
2022/08/27 02:21:44;;;;;;;30.33;21.85;;;17.80;99.90;;;;;;5057598;28;20081;-75
2022/08/27 02:24:12;;;;;;;37.30;23.13;;;17.80;99.90;;;;;;5053990;28;20075;-76
2022/08/27 02:26:39;;;;;;;34.80;22.20;;;17.80;99.90;;;;;;5052881;28;20052;-76
2022/08/27 02:29:08;;;;;;;37.38;23.50;;;17.80;99.90;;;;;;5090752;28;20068;-75
2022/08/27 02:31:36;;;;;;;29.98;21.50;;;17.80;99.90;;;;;;5074763;28;20045;-75
2022/08/27 02:34:04;;;;;;;29.13;21.48;;;17.80;99.90;;;;;;5075880;28;20060;-75
2022/08/27 02:36:31;;;;;;;29.38;20.70;;;17.80;99.90;;;;;;5058429;28;20063;-76
2022/08/27 02:38:59;;;;;;;29.98;21.77;;;17.70;99.90;;;;;;5057063;28;20060;-77
2022/08/27 02:41:27;;;;;;;27.45;22.30;;;17.70;99.90;;;;;;5051895;28;20045;-77
2022/08/27 02:43:54;;;;;;;30.40;22.85;;;17.70;99.90;;;;;;5061447;28;20037;-75
2022/08/27 02:46:23;;;;;;;31.20;22.23;;;17.60;99.90;;;;;;5063166;28;20087;-75
2022/08/27 02:48:50;;;;;;;29.98;22.90;;;17.60;99.90;;;;;;5062266;28;20041;-75
2022/08/27 02:51:18;;;;;;;40.50;23.25;;;17.60;99.90;;;;;;5043971;28;20107;-75
2022/08/27 02:53:45;;;;;;;32.03;25.38;;;17.60;99.90;;;;;;5060795;28;20040;-76
2022/08/27 02:56:12;;;;;;;36.20;24.95;;;17.60;99.90;;;;;;5060264;28;20060;-75
2022/08/27 02:58:40;;;;;;;33.53;24.08;;;17.60;99.90;;;;;;5060028;28;20040;-75
2022/08/27 03:01:08;;;;;;;30.88;23.10;;;17.60;99.90;;;;;;5059739;28;20072;-77
2022/08/27 03:03:37;;;;;;;33.25;23.13;;;17.60;99.90;;;;;;5061942;28;20106;-76
2022/08/27 03:06:05;;;;;;;30.40;22.63;;;17.60;99.90;;;;;;5064012;28;20041;-76
2022/08/27 03:08:32;;;;;;;31.80;23.13;;;17.60;99.90;;;;;;5062845;28;20045;-75
2022/08/27 03:10:59;;;;;;;31.23;22.77;;;17.50;99.90;;;;;;5061987;28;20041;-76
2022/08/27 03:13:27;;;;;;;31.08;22.10;;;17.50;99.90;;;;;;5063239;28;20098;-76
2022/08/27 03:15:54;;;;;;;35.60;23.67;;;17.50;99.90;;;;;;5064571;28;20488;-77
2022/08/27 03:18:20;;;;;;;45.60;26.90;;;17.60;99.90;;;;;;5065542;28;20037;-76
2022/08/27 03:20:52;;;;;;;40.88;27.35;;;17.60;99.90;;;;;;5045766;28;20041;-77
2022/08/27 03:23:22;;;;;;;43.80;27.05;;;17.60;99.90;;;;;;5060464;28;20049;-76
2022/08/27 03:25:52;;;;;;;42.63;28.75;;;17.50;99.90;;;;;;5052668;28;20064;-77
2022/08/27 03:28:20;;;;;;;37.10;25.27;;;17.50;99.90;;;;;;5084474;28;20037;-76
2022/08/27 03:30:50;;;;;;;38.33;25.67;;;17.50;99.90;;;;;;5057730;28;20072;-75
2022/08/27 03:33:19;;;;;;;43.40;26.52;;;17.40;99.90;;;;;;5070255;28;20105;-77
2022/08/27 03:35:47;;;;;;;39.65;26.80;;;17.40;99.90;;;;;;5057431;28;20408;-76
2022/08/27 03:38:16;;;;;;;37.17;28.65;;;17.40;99.90;;;;;;5080592;22;20019;-73
2022/08/27 03:40:44;;;;;;;44.33;28.10;;;17.30;99.90;;;;;;5095189;28;20067;-72
2022/08/27 03:43:13;;;;;;;32.45;25.83;;;17.30;99.90;;;;;;5093938;28;20052;-72
2022/08/27 03:45:43;;;;;;;38.10;27.20;;;17.30;99.90;;;;;;5096661;28;20119;-72
2022/08/27 03:48:11;;;;;;;35.85;26.40;;;17.30;99.90;;;;;;5097560;28;20135;-72
2022/08/27 03:50:39;;;;;;;35.25;24.52;;;17.30;99.90;;;;;;5096098;28;20054;-72
2022/08/27 03:53:07;;;;;;;31.65;24.67;;;17.30;99.90;;;;;;5095107;28;20124;-72
2022/08/27 03:55:35;;;;;;;31.92;25.10;;;17.30;99.90;;;;;;5095509;28;20043;-72
2022/08/27 03:58:03;;;;;;;35.70;24.60;;;17.30;99.90;;;;;;5075155;28;20115;-72
2022/08/27 04:00:30;;;;;;;31.33;24.55;;;17.30;99.90;;;;;;5075128;28;20132;-72
2022/08/27 04:02:58;;;;;;;42.10;25.63;;;17.30;99.90;;;;;;5072925;28;20064;-74
2022/08/27 04:05:25;;;;;;;44.08;26.33;;;17.30;99.90;;;;;;5074823;28;20071;-72
2022/08/27 04:07:52;;;;;;;40.40;26.05;;;17.30;99.90;;;;;;5094860;28;20040;-72
2022/08/27 04:10:20;;;;;;;34.97;24.70;;;17.30;99.90;;;;;;5095256;28;20085;-73
2022/08/27 04:12:49;;;;;;;33.63;24.35;;;17.30;99.90;;;;;;5094607;28;20128;-73
2022/08/27 04:15:16;;;;;;;35.67;24.85;;;17.30;99.90;;;;;;5095290;28;20044;-72
2022/08/27 04:17:43;;;;;;;33.55;24.30;;;17.30;99.90;;;;;;5095049;28;20044;-72
2022/08/27 04:20:11;;;;;;;30.40;24.50;;;17.30;99.90;;;;;;5094781;28;20131;-72
2022/08/27 04:22:39;;;;;;;30.25;23.98;;;17.30;99.90;;;;;;5094984;28;20123;-72
2022/08/27 04:25:07;;;;;;;40.63;26.27;;;17.40;99.90;;;;;;5103759;28;20108;-72
2022/08/27 04:27:35;;;;;;;38.33;27.67;;;17.40;99.90;;;;;;5113343;28;20051;-72
2022/08/27 04:30:05;;;;;;;42.70;30.08;;;17.50;99.90;;;;;;5111240;28;20040;-72
2022/08/27 04:32:32;;;;;;;36.67;28.52;;;17.50;99.90;;;;;;5098079;28;20131;-73
2022/08/27 04:35:01;;;;;;;38.42;28.63;;;17.60;99.90;;;;;;5094631;28;20148;-73
2022/08/27 04:37:31;;;;;;;36.33;27.70;;;17.70;99.90;;;;;;5094741;28;20048;-73
2022/08/27 04:39:59;;;;;;;42.72;28.48;;;17.70;99.90;;;;;;5094246;28;20065;-72
2022/08/27 04:42:26;;;;;;;30.08;25.88;;;17.80;99.90;;;;;;5092458;28;20043;-72
2022/08/27 04:44:54;;;;;;;37.00;26.95;;;17.80;99.90;;;;;;5094740;28;20556;-72
2022/08/27 04:47:22;;;;;;;33.72;26.63;;;17.80;99.90;;;;;;5094006;28;20089;-72
2022/08/27 04:49:50;;;;;;;33.28;26.70;;;17.90;99.90;;;;;;5092723;28;20514;-72
2022/08/27 04:52:18;;;;;;;44.22;27.75;;;17.80;99.90;;;;;;5093562;28;20044;-72
2022/08/27 04:54:45;;;;;;;38.65;27.00;;;17.80;99.90;;;;;;5094185;28;20124;-72
2022/08/27 04:57:13;;;;;;;36.22;25.95;;;18.00;99.90;;;;;;5094446;28;20090;-73
2022/08/27 04:59:40;;;;;;;36.03;26.35;;;18.10;99.90;;;;;;5093907;28;20070;-72
2022/08/27 05:02:09;;;;;;;31.60;24.73;;;18.20;99.90;;;;;;5093837;28;20113;-72
2022/08/27 05:04:39;;;;;;;153.75;40.63;;;18.30;99.90;;;;;;5094043;28;20105;-72
2022/08/27 05:07:08;;;;;;;37.42;25.15;;;18.40;99.90;;;;;;5093716;28;20453;-72
2022/08/27 05:09:35;;;;;;;41.80;25.92;;;18.50;99.90;;;;;;5092577;28;20101;-71
2022/08/27 05:12:03;;;;;;;35.85;25.50;;;18.50;99.90;;;;;;5093928;28;20032;-72
2022/08/27 05:14:31;;;;;;;28.65;22.50;;;18.60;99.90;;;;;;5092082;28;20040;-72
2022/08/27 05:16:59;;;;;;;24.30;20.02;;;18.70;99.90;;;;;;5093698;28;20036;-71
2022/08/27 05:19:27;;;;;;;37.67;21.15;;;18.90;99.90;;;;;;5093564;28;20120;-72
2022/08/27 05:21:55;;;;;;;26.27;20.48;;;19.10;99.90;;;;;;5094133;28;20085;-72
2022/08/27 05:24:23;;;;;;;29.23;19.23;;;19.20;99.90;;;;;;5093227;28;20047;-72
2022/08/27 05:26:51;;;;;;;25.90;18.88;;;19.30;99.90;;;;;;5093155;28;20491;-72
2022/08/27 05:29:19;;;;;;;25.25;18.58;;;19.40;99.90;;;;;;5094359;28;20047;-72
2022/08/27 05:31:47;;;;;;;28.05;18.08;;;19.60;99.90;;;;;;5094607;28;20109;-71
2022/08/27 05:34:14;;;;;;;22.15;17.08;;;19.70;99.90;;;;;;5092591;28;20044;-72
2022/08/27 05:36:42;;;;;;;27.58;17.98;;;19.80;99.90;;;;;;5094613;28;20070;-72
2022/08/27 05:39:10;;;;;;;24.45;18.38;;;20.00;99.90;;;;;;5094474;28;20048;-72
2022/08/27 05:41:38;;;;;;;31.42;19.88;;;20.20;99.90;;;;;;5073266;28;20138;-73
2022/08/27 05:44:09;;;;;;;27.40;19.90;;;20.40;99.90;;;;;;5073054;28;20045;-72
2022/08/27 05:46:39;;;;;;;23.23;17.42;;;20.60;99.90;;;;;;5073204;28;20495;-72
2022/08/27 05:49:08;;;;;;;27.65;18.50;;;20.90;99.90;;;;;;5072714;28;20048;-72
2022/08/27 05:51:36;;;;;;;26.10;16.90;;;21.20;99.90;;;;;;5093154;28;20119;-72
2022/08/27 05:54:05;;;;;;;28.95;16.98;;;21.40;99.90;;;;;;5093022;28;20421;-73
2022/08/27 05:56:38;;;;;;;23.33;16.85;;;21.60;99.90;;;;;;5103316;28;20117;-78
2022/08/27 06:01:53;;;;;;;25.50;17.60;;;21.80;99.90;;;;;;5103373;28;20067;-77
2022/08/27 06:04:22;;;;;;;23.23;15.88;;;22.00;99.90;;;;;;5092413;28;20099;-78
2022/08/27 06:06:50;;;;;;;23.17;17.23;;;22.30;99.90;;;;;;5093800;28;20044;-78
2022/08/27 06:09:21;;;;;;;26.33;16.50;;;22.50;99.90;;;;;;5093927;28;20379;-77
2022/08/27 06:11:50;;;;;;;21.95;17.23;;;22.70;99.90;;;;;;5092448;28;20055;-75
2022/08/27 06:14:17;;;;;;;23.70;18.08;;;22.90;99.90;;;;;;5093641;28;20126;-77
2022/08/27 06:16:45;;;;;;;26.27;16.20;;;23.10;99.90;;;;;;5093456;28;20086;-76
2022/08/27 06:19:12;;;;;;;30.23;18.35;;;23.40;99.90;;;;;;5093448;28;20047;-78
2022/08/27 06:21:40;;;;;;;73.78;23.85;;;23.60;99.90;;;;;;5092667;28;20479;-77
2022/08/27 06:24:08;;;;;;;27.25;21.17;;;23.90;99.90;;;;;;5091748;28;20097;-77
2022/08/27 06:26:35;;;;;;;38.50;22.60;;;23.90;99.90;;;;;;5095367;28;20055;-75
2022/08/27 06:29:05;;;;;;;29.00;20.45;;;24.00;99.90;;;;;;5099005;28;20086;-77
2022/08/27 06:31:34;;;;;;;39.33;22.98;;;24.10;99.90;;;;;;5086375;28;20047;-77
2022/08/27 06:34:03;;;;;;;33.38;20.42;;;24.20;99.90;;;;;;5084825;28;20495;-78
2022/08/27 06:36:31;;;;;;;44.25;22.48;;;24.20;99.90;;;;;;5097365;28;20040;-78
2022/08/27 06:38:59;;;;;;;28.17;20.17;;;24.30;99.90;;;;;;5097377;28;20117;-78
2022/08/27 06:41:28;;;;;;;32.28;21.08;;;24.50;99.90;;;;;;5096096;28;20111;-78
2022/08/27 06:43:57;;;;;;;26.58;19.58;;;24.60;99.90;;;;;;5092055;28;20032;-77
2022/08/27 06:46:28;;;;;;;28.55;18.88;;;24.70;99.90;;;;;;5095441;28;20051;-78
2022/08/27 06:48:59;;;;;;;32.80;18.90;;;24.90;99.90;;;;;;5098538;28;20044;-77
2022/08/27 06:51:28;;;;;;;24.45;18.33;;;24.90;99.90;;;;;;5097760;28;20028;-77
2022/08/27 06:53:58;;;;;;;25.88;17.60;;;25.00;99.90;;;;;;5097400;28;20044;-77
2022/08/27 06:56:25;;;;;;;22.33;18.25;;;25.00;99.90;;;;;;5097215;28;20444;-77
2022/08/27 06:58:54;;;;;;;25.60;17.15;;;25.00;99.90;;;;;;5097726;28;20479;-78
2022/08/27 07:01:23;;;;;;;27.13;17.67;;;25.10;37.70;;;;;;5081822;28;20037;-77
2022/08/27 07:03:55;;;;;;;36.38;18.55;;;25.30;1.00;;;;;;5076712;28;20102;-77
2022/08/27 07:06:22;;;;;;;25.23;16.73;;;25.20;1.00;;;;;;5095815;28;20430;-77
2022/08/27 07:08:50;;;;;;;25.55;17.40;;;25.30;1.00;;;;;;5095604;28;20039;-77
2022/08/27 07:11:17;;;;;;;27.88;17.10;;;25.20;1.00;;;;;;5094402;28;20036;-78
2022/08/27 07:13:47;;;;;;;26.83;16.58;;;25.20;1.00;;;;;;5095061;28;20071;-76
2022/08/27 07:16:17;;;;;;;22.88;15.95;;;25.30;1.00;;;;;;5097083;28;20425;-77
2022/08/27 07:18:45;;;;;;;24.42;16.38;;;25.30;1.00;;;;;;5095733;28;20503;-76
2022/08/27 07:21:14;;;;;;;25.42;15.80;;;25.40;1.00;;;;;;5096997;28;20036;-79
2022/08/27 07:23:41;;;;;;;24.73;16.80;;;25.60;1.00;;;;;;5080308;28;20082;-77
2022/08/27 07:26:10;;;;;;;25.70;16.23;;;25.80;1.00;;;;;;5096344;28;20063;-76
2022/08/27 07:28:38;;;;;;;26.20;15.90;;;25.80;1.00;;;;;;5095371;28;20040;-77
2022/08/27 07:31:07;;;;;;;24.70;17.30;;;25.90;99.90;;;;;;5095355;28;20040;-77
2022/08/27 07:33:35;;;;;;;29.95;16.00;;;26.00;1.00;;;;;;5095510;28;20378;-77
2022/08/27 07:36:04;;;;;;;30.13;15.73;;;26.20;1.00;;;;;;5095159;28;20036;-77
2022/08/27 07:38:33;;;;;;;23.77;15.25;;;26.50;1.00;;;;;;5093819;28;20052;-75
2022/08/27 07:41:05;;;;;;;25.40;17.40;;;26.70;1.00;;;;;;5093970;28;20047;-76
2022/08/27 07:46:17;;;;;;;24.38;15.07;;;26.90;1.00;;;;;;5095900;28;20049;-77
2022/08/27 07:48:44;;;;;;;26.45;16.10;;;26.90;99.90;;;;;;5082451;28;20457;-77
2022/08/27 07:51:16;;;;;;;127.68;33.30;;;26.90;1.00;;;;;;5095617;28;20036;-77
2022/08/27 07:53:45;;;;;;;34.75;18.83;;;27.30;1.00;;;;;;5095926;28;20442;-75
2022/08/27 07:56:13;;;;;;;43.65;22.38;;;27.70;1.00;;;;;;5095741;28;20059;-76
2022/08/27 07:58:41;;;;;;;130.27;31.73;;;27.80;1.00;;;;;;5095225;28;20054;-77
2022/08/27 08:01:09;;;;;;;85.90;23.17;;;28.10;1.00;;;;;;5095614;28;20185;-77
2022/08/27 08:03:36;;;;;;;26.65;15.52;;;28.30;1.00;;;;;;5096091;28;20044;-76
2022/08/27 08:06:05;;;;;;;23.27;15.40;;;28.20;1.00;;;;;;5096026;28;20054;-77
2022/08/27 08:08:34;;;;;;;25.73;15.70;;;28.30;99.90;;;;;;5075169;28;20086;-78
2022/08/27 08:11:04;;;;;;;24.63;15.82;;;28.20;99.90;;;;;;5075900;28;20040;-76
2022/08/27 08:13:32;;;;;;;21.88;14.95;;;28.00;1.00;;;;;;5090766;28;20036;-77
2022/08/27 08:15:59;;;;;;;30.52;17.38;;;28.20;1.00;;;;;;5095700;28;20475;-76
2022/08/27 08:18:27;;;;;;;22.60;15.93;;;28.30;1.00;;;;;;5078228;28;20052;-76
2022/08/27 08:21:00;;;;;;;27.88;16.45;;;28.50;1.00;;;;;;5075544;28;20044;-77
2022/08/27 08:23:28;;;;;;;24.75;17.15;;;28.70;1.00;;;;;;5083504;28;20045;-76
2022/08/27 08:25:56;;;;;;;31.25;16.80;;;28.90;99.90;;;;;;5102187;28;20494;-77
2022/08/27 08:28:26;;;;;;;32.53;17.17;;;28.80;99.90;;;;;;5105366;28;20052;-77
2022/08/27 08:30:54;;;;;;;30.90;18.60;;;29.00;99.90;;;;;;5106958;28;20093;-77
2022/08/27 08:33:22;;;;;;;26.88;16.70;;;29.20;1.00;;;;;;5103632;28;20050;-76
2022/08/27 08:35:49;;;;;;;24.63;18.92;;;29.30;1.00;;;;;;5095499;28;20040;-76
2022/08/27 08:38:18;;;;;;;52.30;20.92;;;29.40;1.00;;;;;;5094699;28;20468;-76
2022/08/27 08:40:49;;;;;;;26.60;17.35;;;29.40;1.00;;;;;;5094805;28;20067;-76
2022/08/27 08:43:29;;;;;;;26.13;15.95;;;29.60;1.00;;;;;;5078336;28;20040;-76
2022/08/27 08:46:00;;;;;;;37.60;17.63;;;29.60;1.00;;;;;;5074664;28;20495;-76
2022/08/27 08:48:29;;;;;;;24.67;15.75;;;29.50;1.00;;;;;;5073430;28;20097;-76
2022/08/27 08:51:02;;;;;;;24.98;16.23;;;29.40;1.00;;;;;;5072306;28;20053;-76
2022/08/27 08:53:41;;;;;;;31.30;17.92;;;29.30;1.00;;;;;;5086418;28;20032;-75
2022/08/27 08:56:11;;;;;;;28.60;16.17;;;29.50;1.00;;;;;;5072657;28;20373;-76
2022/08/27 08:58:47;;;;;;;23.13;15.85;;;29.60;1.00;;;;;;5081538;28;20044;-76
2022/08/27 09:01:19;;;;;;;36.42;19.15;;;29.50;1.00;;;;;;5094144;28;20043;-75
2022/08/27 09:03:53;;;;;;;29.30;16.40;;;29.50;1.00;;;;;;5093891;28;20119;-75
2022/08/27 09:06:32;;;;;;;29.77;20.17;;;29.60;1.00;;;;;;5092484;28;20056;-77
2022/08/27 09:09:08;;;;;;;29.23;17.52;;;29.60;1.00;;;;;;5094538;28;20077;-77
2022/08/27 09:11:40;;;;;;;27.02;16.02;;;29.80;1.00;;;;;;5093356;28;20036;-76
2022/08/27 09:14:19;;;;;;;26.83;15.70;;;29.90;1.00;;;;;;5091820;28;20094;-76
2022/08/27 09:16:46;;;;;;;41.47;17.98;;;30.00;1.00;;;;;;5092226;28;20154;-76
2022/08/27 09:19:14;;;;;;;33.08;18.30;;;30.10;1.00;;;;;;5084301;28;20040;-76
2022/08/27 09:21:51;;;;;;;42.97;18.25;;;30.10;1.00;;;;;;5074086;28;20491;-76
2022/08/27 09:24:25;;;;;;;28.58;17.27;;;30.10;1.00;;;;;;5079271;28;20059;-77
2022/08/27 09:26:55;;;;;;;28.20;16.33;;;30.20;1.00;;;;;;5092699;28;20048;-77
2022/08/27 09:29:26;;;;;;;26.40;16.30;;;30.30;1.00;;;;;;5096417;28;20136;-76
2022/08/27 09:31:56;;;;;;;27.20;17.25;;;30.10;1.00;;;;;;5094085;28;20036;-76
2022/08/27 09:34:26;;;;;;;28.70;15.48;;;29.90;1.00;;;;;;5092961;28;20070;-77
2022/08/27 09:37:02;;;;;;;27.88;15.73;;;29.70;1.00;;;;;;5094447;28;20047;-76
2022/08/27 09:39:41;;;;;;;26.92;14.38;;;29.80;1.00;;;;;;5093830;28;20055;-76
2022/08/27 09:42:09;;;;;;;24.80;14.48;;;30.10;1.00;;;;;;5093713;28;20052;-76
2022/08/27 09:44:47;;;;;;;26.88;12.88;;;30.10;1.00;;;;;;5091990;28;20054;-76
2022/08/27 09:47:15;;;;;;;26.10;12.00;;;30.10;99.90;;;;;;5092940;28;20054;-76
2022/08/27 09:49:43;;;;;;;21.70;12.70;;;30.30;36.20;;;;;;5092582;28;20391;-75
2022/08/27 09:52:25;;;;;;;21.88;11.23;;;30.50;99.90;;;;;;5092732;28;20491;-75
2022/08/27 09:54:54;;;;;;;18.10;10.57;;;30.60;99.90;;;;;;5075106;28;20059;-76
2022/08/27 09:57:33;;;;;;;23.13;10.57;;;30.70;99.90;;;;;;5093608;28;20044;-75
2022/08/27 10:00:02;;;;;;;22.33;10.60;;;30.80;99.90;;;;;;5091392;28;20113;-75
2022/08/27 10:02:50;;;;;;;16.73;11.00;;;30.80;99.90;;;;;;5078630;28;20507;-76
2022/08/27 10:05:26;;;;;;;19.10;10.52;;;31.00;99.90;;;;;;5071725;28;20045;-75
2022/08/27 10:07:59;;;;;;;19.75;9.80;;;30.90;99.90;;;;;;5082018;28;20044;-75
2022/08/27 10:10:46;;;;;;;21.90;9.85;;;31.00;99.90;;;;;;5092213;28;20067;-75
2022/08/27 10:13:18;;;;;;;21.70;10.05;;;31.00;99.90;;;;;;5083432;28;20036;-75
2022/08/27 10:15:57;;;;;;;20.60;11.30;;;31.00;99.90;;;;;;5075450;28;20509;-76
2022/08/27 10:18:32;;;;;;;17.17;10.02;;;31.10;1.00;;;;;;5095850;28;20044;-75
2022/08/27 10:21:08;;;;;;;18.63;10.27;;;31.10;1.00;;;;;;5094541;28;20101;-75
2022/08/27 10:23:39;;;;;;;;;;;31.10;99.90;;;;;;5094499;28;20032;-76
2022/08/27 10:26:15;;;;;;;23.60;9.40;;;31.10;99.90;;;;;;5091239;28;19973;-76
2022/08/27 10:29:02;;;;;;;21.17;8.77;;;31.10;92.90;;;;;;5092321;28;20127;-74
2022/08/27 10:31:38;;;;;;;18.33;8.07;;;31.10;1.00;;;;;;5080852;28;20076;-75
2022/08/27 10:34:25;;;;;;;19.60;8.30;;;31.00;1.00;;;;;;5092556;28;20479;-75
2022/08/27 10:37:03;;;;;;;18.58;8.73;;;31.00;99.90;;;;;;5092648;28;20036;-76
2022/08/27 10:39:47;;;;;;;18.20;7.78;;;31.30;67.80;;;;;;5091669;28;20094;-76
2022/08/27 10:42:21;;;;;;;16.08;8.13;;;31.40;99.90;;;;;;5091892;28;20044;-76
2022/08/27 10:45:03;;;;;;;25.60;15.77;;;31.30;1.00;;;;;;5093284;28;20090;-75
2022/08/27 10:47:49;;;;;;;19.48;7.65;;;31.50;1.00;;;;;;5092948;28;20040;-75
2022/08/27 10:50:26;;;;;;;19.52;10.90;;;31.50;99.90;;;;;;5091473;28;20044;-76
2022/08/27 10:52:59;;;;;;;17.83;8.05;;;31.60;99.90;;;;;;5092101;28;20105;-75
2022/08/27 10:55:32;;;;;;;17.95;7.88;;;31.60;99.90;;;;;;5092613;28;20159;-75
2022/08/27 10:58:15;;;;;;;18.50;7.82;;;31.60;99.90;;;;;;5092261;28;20052;-77
2022/08/27 11:00:48;;;;;;;14.93;7.60;;;31.70;1.00;;;;;;5092059;28;20040;-75
2022/08/27 11:03:25;;;;;;;18.77;9.90;;;31.70;1.00;;;;;;5092676;28;20040;-75
2022/08/27 11:05:54;;;;;;;22.55;9.27;;;31.70;1.00;;;;;;5092436;28;20105;-75
2022/08/27 11:08:26;;;;;;;19.73;8.80;;;31.70;1.00;;;;;;5092378;28;20118;-74
2022/08/27 11:10:56;;;;;;;14.75;7.70;;;31.70;1.00;;;;;;5092720;28;20072;-76
2022/08/27 11:13:31;;;;;;;13.93;7.50;;;31.70;1.00;;;;;;5095963;28;20036;-75
2022/08/27 11:16:01;;;;;;;14.43;7.43;;;31.70;1.00;;;;;;5096024;28;20044;-76
2022/08/27 11:18:40;;;;;;;16.95;6.97;;;31.70;1.00;;;;;;5096476;28;20200;-75
2022/08/27 11:21:15;;;;;;;19.52;9.23;;;31.80;99.90;;;;;;5099744;28;20039;-76
2022/08/27 11:23:47;;;;;;;19.50;8.80;;;31.70;1.00;;;;;;5116136;28;20101;-76
2022/08/27 11:26:14;;;;;;;21.35;9.45;;;31.90;99.90;;;;;;5113873;28;20081;-75
2022/08/27 11:28:47;;;;;;;15.20;6.95;;;31.90;1.00;;;;;;5095698;28;20097;-75
2022/08/27 11:31:22;;;;;;;17.95;6.97;;;31.70;1.00;;;;;;5095735;28;20040;-75
2022/08/27 11:33:58;;;;;;;18.48;7.38;;;31.70;33.90;;;;;;5095525;28;20453;-75
2022/08/27 11:36:45;;;;;;;20.65;8.70;;;31.60;1.00;;;;;;5095553;28;20134;-75
2022/08/27 11:39:25;;;;;;;19.45;7.97;;;31.60;99.90;;;;;;5095564;28;20060;-75
2022/08/27 11:42:07;;;;;;;20.88;8.63;;;31.60;99.90;;;;;;5095528;28;20443;-76
2022/08/27 11:44:42;;;;;;;25.23;8.75;;;31.70;1.20;;;;;;5094607;28;20051;-76
2022/08/27 11:47:13;;;;;;;18.90;6.82;;;31.70;1.00;;;;;;5094365;28;20047;-75
2022/08/27 11:49:47;;;;;;;15.70;7.20;;;31.70;1.00;;;;;;5095655;28;20070;-75
2022/08/27 11:52:23;;;;;;;17.57;7.97;;;31.70;1.00;;;;;;5095753;28;20040;-75
2022/08/27 11:54:55;;;;;;;14.88;7.93;;;31.90;1.00;;;;;;5096027;28;20070;-76
2022/08/27 11:57:29;;;;;;;21.67;11.25;;;31.80;1.00;;;;;;5095286;28;20048;-75
2022/08/27 11:59:57;;;;;;;14.90;6.57;;;31.80;1.00;;;;;;5096920;28;20049;-74
2022/08/27 12:02:28;;;;;;;16.40;7.93;;;31.60;1.00;;;;;;5096719;28;20058;-75
2022/08/27 12:05:08;;;;;;;13.68;7.10;;;31.70;1.00;;;;;;5096439;28;20495;-76
2022/08/27 12:07:38;;;;;;;17.80;7.90;;;31.70;1.00;;;;;;5095514;28;20036;-75
2022/08/27 12:10:33;;;;;;;17.30;7.05;;;31.70;1.00;;;;;;5095839;28;20131;-75
2022/08/27 12:13:14;;;;;;;19.05;7.68;;;31.60;1.00;;;;;;5093445;28;20518;-76
2022/08/27 12:15:52;;;;;;;15.55;6.88;;;31.50;1.00;;;;;;5094460;28;20097;-75
2022/08/27 12:18:39;;;;;;;14.93;7.80;;;31.70;1.00;;;;;;5094896;28;20047;-76
2022/08/27 12:21:21;;;;;;;25.70;8.82;;;31.70;1.00;;;;;;5094992;28;20097;-75
2022/08/27 12:24:04;;;;;;;19.85;6.15;;;31.70;99.90;;;;;;5092621;28;20499;-76
2022/08/27 12:26:35;;;;;;;18.15;6.32;;;31.60;99.90;;;;;;5094495;28;20064;-75
2022/08/27 12:29:27;;;;;;;12.77;7.00;;;31.50;99.90;;;;;;5093232;28;20055;-75
2022/08/27 12:32:03;;;;;;;15.82;6.60;;;31.80;1.00;;;;;;5091636;28;20062;-75
2022/08/27 12:34:32;;;;;;;15.18;5.93;;;31.70;1.00;;;;;;5092910;28;20044;-75
2022/08/27 12:37:02;;;;;;;16.38;6.63;;;31.60;1.00;;;;;;5094751;28;20071;-75
2022/08/27 12:39:36;;;;;;;13.25;5.95;;;31.80;25.00;;;;;;5094288;28;20400;-75
2022/08/27 12:42:11;;;;;;;12.07;6.03;;;31.70;1.00;;;;;;5094329;28;20437;-76
2022/08/27 12:44:39;;;;;;;12.90;5.80;;;31.70;1.00;;;;;;5093709;28;20058;-76
2022/08/27 12:47:10;;;;;;;13.65;6.28;;;31.70;99.90;;;;;;5093450;28;20122;-75
2022/08/27 12:49:44;;;;;;;17.67;5.93;;;31.70;1.00;;;;;;5093276;28;20040;-76
2022/08/27 12:52:27;;;;;;;12.73;5.95;;;31.60;99.90;;;;;;5094176;28;20051;-75
2022/08/27 12:55:05;;;;;;;18.73;6.25;;;31.50;95.10;;;;;;5094215;28;20036;-75
2022/08/27 12:57:38;;;;;;;13.93;6.47;;;31.60;99.90;;;;;;5094460;28;20036;-76
2022/08/27 13:00:11;;;;;;;12.95;5.95;;;31.60;1.00;;;;;;5094784;28;20066;-75